createdAt,value
2022-11-13T00:02:03.558Z,42.95
2022-11-13T00:04:50.869Z,42.10
2022-11-13T00:07:39.114Z,44.35
2022-11-13T00:10:25.860Z,48.03
2022-11-13T00:13:15.269Z,51.58
2022-11-13T00:16:04.944Z,46.28
2022-11-13T00:18:52.089Z,47.83
2022-11-13T00:21:39.178Z,47.95
2022-11-13T00:24:27.486Z,54.20
2022-11-13T00:27:14.570Z,49.15
2022-11-13T00:30:01.362Z,50.00
2022-11-13T00:32:48.366Z,46.65
2022-11-13T00:35:35.459Z,45.20
2022-11-13T00:38:22.537Z,43.38
2022-11-13T00:41:10.896Z,41.80
2022-11-13T00:43:58.001Z,46.80
2022-11-13T00:46:45.161Z,45.03
2022-11-13T00:49:32.352Z,45.33
2022-11-13T00:52:19.536Z,41.17
2022-11-13T00:55:08.546Z,40.78
2022-11-13T00:57:56.909Z,44.15
2022-11-13T01:00:46.802Z,38.95
2022-11-13T01:03:33.771Z,36.90
2022-11-13T01:06:24.869Z,39.53
2022-11-13T01:09:14.632Z,41.28
2022-11-13T01:12:01.542Z,38.80
2022-11-13T01:14:50.341Z,39.05
2022-11-13T01:17:37.160Z,38.00
2022-11-13T01:20:25.806Z,38.25
2022-11-13T01:23:12.700Z,39.33
2022-11-13T01:26:08.590Z,41.85
2022-11-13T01:28:57.137Z,38.00
2022-11-13T01:31:45.676Z,39.28
2022-11-13T01:34:32.675Z,34.53
2022-11-13T01:37:19.649Z,35.65
2022-11-13T01:40:07.949Z,38.25
2022-11-13T01:42:55.045Z,34.72
2022-11-13T01:46:20.373Z,37.05
2022-11-13T01:49:26.783Z,33.88
2022-11-13T01:52:20.176Z,34.78
2022-11-13T01:55:12.945Z,34.78
2022-11-13T01:58:00.802Z,33.10
2022-11-13T02:00:47.869Z,36.15
2022-11-13T02:03:35.502Z,32.60
2022-11-13T02:06:23.764Z,32.95
2022-11-13T02:09:12.666Z,35.70
2022-11-13T02:12:00.610Z,31.08
2022-11-13T02:14:51.466Z,33.88
2022-11-13T02:17:44.485Z,32.13
2022-11-13T02:20:46.608Z,32.75
2022-11-13T02:23:45.917Z,30.25
2022-11-13T02:26:35.252Z,32.03
2022-11-13T02:29:22.435Z,30.08
2022-11-13T02:32:09.694Z,28.92
2022-11-13T02:34:56.404Z,28.98
2022-11-13T02:37:43.430Z,28.35
2022-11-13T02:40:30.738Z,28.40
2022-11-13T02:43:19.180Z,30.48
2022-11-13T02:46:06.166Z,27.38
2022-11-13T02:48:52.924Z,29.08
2022-11-13T02:51:39.818Z,27.40
2022-11-13T02:54:26.964Z,26.58
2022-11-13T02:57:13.900Z,26.25
2022-11-13T03:00:03.178Z,27.85
2022-11-13T03:02:50.305Z,27.48
2022-11-13T03:05:37.407Z,27.00
2022-11-13T03:08:26.132Z,23.08
2022-11-13T03:11:14.427Z,25.42
2022-11-13T03:14:01.352Z,23.98
2022-11-13T03:16:49.909Z,24.15
2022-11-13T03:19:36.685Z,23.55
2022-11-13T03:22:23.758Z,25.88
2022-11-13T03:25:11.296Z,24.10
2022-11-13T03:27:58.396Z,22.67
2022-11-13T03:30:45.443Z,22.55
2022-11-13T03:33:34.502Z,25.92
2022-11-13T03:36:21.982Z,24.48
2022-11-13T03:39:08.963Z,25.38
2022-11-13T03:41:55.995Z,25.98
2022-11-13T03:44:42.880Z,20.85
2022-11-13T03:47:29.952Z,23.10
2022-11-13T03:50:19.947Z,25.10
2022-11-13T03:53:07.183Z,25.30
2022-11-13T03:55:54.540Z,21.90
2022-11-13T03:58:43.710Z,22.48
2022-11-13T04:01:34.189Z,24.25
2022-11-13T04:04:21.533Z,20.73
2022-11-13T04:07:10.022Z,26.40
2022-11-13T04:09:57.166Z,22.38
2022-11-13T04:12:44.393Z,23.23
2022-11-13T04:15:31.258Z,21.85
2022-11-13T04:18:18.213Z,25.30
2022-11-13T04:21:07.031Z,24.63
2022-11-13T04:23:55.586Z,23.45
2022-11-13T04:26:42.561Z,25.38
2022-11-13T04:29:29.504Z,24.10
2022-11-13T04:32:16.729Z,23.05
2022-11-13T04:35:03.877Z,23.20
2022-11-13T04:37:50.845Z,23.20
2022-11-13T04:40:41.460Z,21.58
2022-11-13T04:43:27.386Z,26.65
2022-11-13T04:46:14.388Z,22.35
2022-11-13T04:49:01.124Z,21.60
2022-11-13T04:51:48.226Z,21.98
2022-11-13T04:54:35.377Z,29.25
2022-11-13T04:57:24.486Z,20.25
2022-11-13T05:00:13.582Z,20.45
2022-11-13T05:03:00.764Z,22.52
2022-11-13T05:05:47.946Z,20.58
2022-11-13T05:08:34.946Z,21.80
2022-11-13T05:11:22.335Z,22.98
2022-11-13T05:14:13.340Z,22.40
2022-11-13T05:17:00.919Z,21.42
2022-11-13T05:19:47.879Z,21.25
2022-11-13T05:22:34.895Z,21.17
2022-11-13T05:25:21.799Z,19.38
2022-11-13T05:28:08.699Z,21.67
2022-11-13T05:31:06.081Z,21.00
2022-11-13T05:33:53.275Z,21.90
2022-11-13T05:36:40.897Z,23.40
2022-11-13T05:39:27.748Z,21.10
2022-11-13T05:42:14.815Z,18.92
2022-11-13T05:45:01.678Z,19.80
2022-11-13T05:47:51.531Z,19.20
2022-11-13T05:50:38.829Z,22.95
2022-11-13T05:53:25.758Z,20.08
2022-11-13T05:56:18.369Z,17.42
2022-11-13T05:59:06.657Z,20.15
2022-11-13T06:01:53.824Z,20.60
2022-11-13T06:04:42.227Z,22.05
2022-11-13T06:07:29.396Z,23.45
2022-11-13T06:10:19.424Z,22.85
2022-11-13T06:13:06.405Z,21.45
2022-11-13T06:15:54.205Z,22.27
2022-11-13T06:18:43.123Z,20.90
2022-11-13T06:21:34.320Z,22.13
2022-11-13T06:24:21.096Z,21.88
2022-11-13T06:27:08.162Z,20.75
2022-11-13T06:29:55.454Z,18.20
2022-11-13T06:32:42.607Z,20.08
2022-11-13T06:35:29.728Z,16.80
2022-11-13T06:38:18.108Z,18.77
2022-11-13T06:41:06.229Z,18.80
2022-11-13T06:43:53.392Z,22.20
2022-11-13T06:46:40.192Z,18.60
2022-11-13T06:49:27.475Z,17.92
2022-11-13T06:52:14.109Z,17.75
2022-11-13T06:55:02.697Z,20.70
2022-11-13T06:57:49.583Z,18.83
2022-11-13T07:00:38.934Z,19.25
2022-11-13T07:03:28.397Z,17.38
2022-11-13T07:06:19.839Z,19.67
2022-11-13T07:09:07.101Z,16.98
2022-11-13T07:11:55.566Z,16.92
2022-11-13T07:14:42.912Z,18.85
2022-11-13T07:17:30.391Z,19.42
2022-11-13T07:20:17.700Z,19.30
2022-11-13T07:23:05.379Z,18.13
2022-11-13T07:25:55.443Z,17.42
2022-11-13T07:28:43.540Z,17.98
2022-11-13T07:31:30.333Z,18.67
2022-11-13T07:34:17.382Z,16.23
2022-11-13T07:37:06.484Z,16.58
2022-11-13T07:39:53.391Z,15.02
2022-11-13T07:42:41.001Z,18.95
2022-11-13T07:45:30.430Z,16.45
2022-11-13T07:48:17.258Z,17.60
2022-11-13T07:51:05.132Z,17.45
2022-11-13T07:53:55.845Z,15.32
2022-11-13T07:56:42.997Z,16.55
2022-11-13T07:59:30.129Z,17.17
2022-11-13T08:02:22.332Z,16.88
2022-11-13T08:05:13.260Z,14.95
2022-11-13T08:08:00.374Z,16.73
2022-11-13T08:10:47.298Z,15.15
2022-11-13T08:13:35.065Z,16.80
2022-11-13T08:16:23.417Z,17.42
2022-11-13T08:19:12.032Z,16.08
2022-11-13T08:21:59.022Z,18.17
2022-11-13T08:24:46.101Z,17.35
2022-11-13T08:27:33.184Z,16.40
2022-11-13T08:30:20.226Z,16.73
2022-11-13T08:33:07.388Z,19.15
2022-11-13T08:35:57.267Z,17.05
2022-11-13T08:38:44.153Z,16.97
2022-11-13T08:41:31.267Z,15.43
2022-11-13T08:44:18.210Z,16.08
2022-11-13T08:47:07.119Z,16.55
2022-11-13T08:49:54.047Z,15.52
2022-11-13T08:52:42.875Z,16.98
2022-11-13T08:55:29.930Z,16.13
2022-11-13T08:58:18.394Z,16.80
2022-11-13T09:01:06.534Z,17.75
2022-11-13T09:03:53.792Z,16.92
2022-11-13T09:06:41.314Z,17.20
2022-11-13T09:09:29.934Z,17.85
2022-11-13T09:12:18.743Z,17.42
2022-11-13T09:15:06.844Z,16.88
2022-11-13T09:17:57.703Z,15.98
2022-11-13T09:20:44.567Z,19.08
2022-11-13T09:23:31.890Z,16.60
2022-11-13T09:26:20.152Z,17.35
2022-11-13T09:29:07.350Z,17.25
2022-11-13T09:31:54.417Z,16.45
2022-11-13T09:34:41.048Z,16.52
2022-11-13T09:37:28.146Z,16.20
2022-11-13T09:40:29.208Z,17.48
2022-11-13T09:43:28.930Z,15.80
2022-11-13T09:46:37.559Z,15.77
2022-11-13T09:49:30.734Z,18.02
2022-11-13T09:52:21.605Z,15.35
2022-11-13T09:55:13.995Z,18.27
2022-11-13T09:58:10.691Z,16.27
2022-11-13T10:01:01.845Z,14.60
2022-11-13T10:04:02.683Z,16.10
2022-11-13T10:07:06.846Z,17.05
2022-11-13T10:10:08.127Z,16.40
2022-11-13T10:12:59.704Z,17.13
2022-11-13T10:15:50.541Z,16.73
2022-11-13T10:18:40.929Z,17.38
2022-11-13T10:21:36.677Z,15.32
2022-11-13T10:24:29.603Z,15.75
2022-11-13T10:27:17.062Z,15.73
2022-11-13T10:30:05.298Z,16.63
2022-11-13T10:32:53.881Z,16.05
2022-11-13T10:35:53.639Z,17.15
2022-11-13T10:38:44.979Z,18.42
2022-11-13T10:41:31.857Z,15.90
2022-11-13T10:44:30.779Z,16.58
2022-11-13T10:47:48.895Z,18.52
2022-11-13T10:50:32.637Z,16.50
2022-11-13T10:53:22.532Z,15.75
2022-11-13T10:56:28.162Z,17.55
2022-11-13T10:59:17.803Z,15.85
2022-11-13T11:02:18.397Z,15.55
2022-11-13T11:07:59.562Z,16.33
2022-11-13T11:11:16.528Z,15.98
2022-11-13T11:14:19.827Z,16.90
2022-11-13T11:17:09.373Z,14.93
2022-11-13T11:20:04.912Z,15.82
2022-11-13T11:22:58.892Z,14.75
2022-11-13T11:25:53.267Z,14.95
2022-11-13T11:28:46.221Z,15.48
2022-11-13T11:31:39.400Z,15.77
2022-11-13T11:34:32.984Z,17.00
2022-11-13T11:37:23.734Z,15.60
2022-11-13T11:40:21.271Z,15.63
2022-11-13T11:43:22.084Z,14.68
2022-11-13T11:46:13.341Z,16.98
2022-11-13T11:49:03.365Z,14.90
2022-11-13T11:52:06.133Z,15.05
2022-11-13T11:55:06.430Z,16.05
2022-11-13T11:57:59.948Z,15.75
2022-11-13T12:00:52.892Z,15.60
2022-11-13T12:04:05.517Z,14.65
2022-11-13T12:07:06.962Z,13.93
2022-11-13T12:10:02.740Z,15.05
2022-11-13T12:13:12.468Z,13.73
2022-11-13T12:16:11.157Z,14.27
2022-11-13T12:19:06.271Z,13.50
2022-11-13T12:22:04.134Z,12.95
2022-11-13T12:25:17.383Z,14.77
2022-11-13T12:28:15.502Z,13.57
2022-11-13T12:31:16.710Z,14.23
2022-11-13T12:34:17.690Z,15.32
2022-11-13T12:37:11.450Z,14.25
2022-11-13T12:40:02.864Z,14.63
2022-11-13T12:42:55.563Z,13.70
2022-11-13T12:45:54.960Z,14.35
2022-11-13T12:48:46.267Z,13.52
2022-11-13T12:51:41.790Z,15.20
2022-11-13T12:54:31.005Z,14.05
2022-11-13T12:57:30.101Z,13.90
2022-11-13T13:00:27.513Z,13.15
2022-11-13T13:03:47.426Z,15.63
2022-11-13T13:06:56.025Z,13.67
2022-11-13T13:10:02.416Z,16.67
2022-11-13T13:12:59.783Z,14.18
2022-11-13T13:16:01.764Z,12.25
2022-11-13T13:18:49.338Z,13.48
2022-11-13T13:21:52.992Z,13.32
2022-11-13T13:24:41.817Z,13.15
2022-11-13T13:27:30.798Z,13.50
2022-11-13T13:30:26.196Z,13.40
2022-11-13T13:33:27.983Z,14.00
2022-11-13T13:36:29.460Z,14.13
2022-11-13T13:39:34.011Z,13.45
2022-11-13T13:42:47.574Z,14.13
2022-11-13T13:45:48.304Z,14.75
2022-11-13T13:48:41.395Z,14.85
2022-11-13T13:51:35.485Z,18.05
2022-11-13T13:54:27.942Z,14.23
2022-11-13T13:57:17.499Z,13.70
2022-11-13T14:00:12.865Z,13.88
2022-11-13T14:03:00.209Z,16.20
2022-11-13T14:05:48.219Z,14.48
2022-11-13T14:08:35.292Z,14.15
2022-11-13T14:11:29.593Z,15.63
2022-11-13T14:14:26.102Z,15.30
2022-11-13T14:17:34.475Z,15.07
2022-11-13T14:20:23.963Z,13.75
2022-11-13T14:23:31.560Z,14.35
2022-11-13T14:26:27.386Z,13.88
2022-11-13T14:29:40.107Z,15.10
2022-11-13T14:32:31.192Z,14.25
2022-11-13T14:38:28.446Z,12.95
2022-11-13T14:41:24.901Z,14.85
2022-11-13T14:44:15.142Z,13.43
2022-11-13T14:47:06.139Z,13.82
2022-11-13T14:49:54.128Z,13.00
2022-11-13T14:52:41.843Z,14.90
2022-11-13T14:55:35.010Z,14.55
2022-11-13T14:58:29.782Z,14.50
2022-11-13T15:01:21.545Z,16.35
2022-11-13T15:04:08.750Z,13.65
2022-11-13T15:07:01.174Z,15.98
2022-11-13T15:09:51.933Z,17.63
2022-11-13T15:12:38.961Z,14.55
2022-11-13T15:15:32.363Z,14.52
2022-11-13T15:18:21.559Z,15.50
2022-11-13T15:21:08.570Z,16.80
2022-11-13T15:23:57.758Z,18.15
2022-11-13T15:26:45.977Z,14.70
2022-11-13T15:29:33.828Z,14.85
2022-11-13T15:32:21.542Z,17.17
2022-11-13T15:35:18.560Z,15.63
2022-11-13T15:38:06.189Z,13.70
2022-11-13T15:40:55.037Z,16.33
2022-11-13T15:43:45.282Z,14.30
2022-11-13T15:46:34.509Z,16.38
2022-11-13T15:49:25.821Z,15.30
2022-11-13T15:52:16.221Z,15.20
2022-11-13T15:55:19.928Z,16.33
2022-11-13T15:58:07.562Z,15.02
2022-11-13T16:00:54.600Z,14.40
2022-11-13T16:03:41.896Z,15.48
2022-11-13T16:06:31.201Z,18.25
2022-11-13T16:09:21.556Z,16.75
2022-11-13T16:12:12.281Z,16.90
2022-11-13T16:15:00.997Z,28.20
2022-11-13T16:17:53.070Z,16.75
2022-11-13T16:20:39.904Z,17.80
2022-11-13T16:23:27.488Z,14.32
2022-11-13T16:26:20.240Z,15.23
2022-11-13T16:29:21.987Z,18.13
2022-11-13T16:32:17.651Z,16.10
2022-11-13T16:35:05.006Z,15.90
2022-11-13T16:37:56.654Z,15.68
2022-11-13T16:40:45.553Z,16.02
2022-11-13T16:43:33.860Z,15.20
2022-11-13T16:46:31.763Z,16.67
2022-11-13T16:49:20.497Z,14.85
2022-11-13T16:52:09.162Z,18.27
2022-11-13T16:54:56.206Z,16.15
2022-11-13T16:57:43.552Z,16.27
2022-11-13T17:00:33.387Z,15.73
2022-11-13T17:03:20.653Z,18.60
2022-11-13T17:06:13.149Z,18.33
2022-11-13T17:09:03.974Z,17.60
2022-11-13T17:11:51.246Z,20.75
2022-11-13T17:14:39.282Z,16.38
2022-11-13T17:17:27.937Z,18.95
2022-11-13T17:20:18.225Z,18.48
2022-11-13T17:23:10.141Z,17.13
2022-11-13T17:26:01.552Z,19.50
2022-11-13T17:28:55.147Z,19.50
2022-11-13T17:31:42.323Z,20.42
2022-11-13T17:34:31.107Z,18.77
2022-11-13T17:37:20.578Z,22.02
2022-11-13T17:40:13.016Z,20.90
2022-11-13T17:43:00.170Z,20.55
2022-11-13T17:45:55.366Z,24.73
2022-11-13T17:48:45.956Z,20.20
2022-11-13T17:51:36.060Z,19.92
2022-11-13T17:54:29.287Z,21.95
2022-11-13T17:57:16.411Z,19.42
2022-11-13T18:00:08.802Z,20.05
2022-11-13T18:03:04.875Z,21.50
2022-11-13T18:05:55.828Z,26.35
2022-11-13T18:11:32.057Z,18.95
2022-11-13T18:14:21.127Z,20.20
2022-11-13T18:17:09.370Z,21.05
2022-11-13T18:20:01.695Z,23.05
2022-11-13T18:22:49.649Z,23.33
2022-11-13T18:25:41.565Z,20.90
2022-11-13T18:28:29.019Z,22.23
2022-11-13T18:31:20.056Z,20.35
2022-11-13T18:36:58.430Z,23.88
2022-11-13T18:39:45.687Z,24.13
2022-11-13T18:42:33.987Z,22.48
2022-11-13T18:45:31.792Z,19.98
2022-11-13T18:48:26.570Z,21.85
2022-11-13T18:51:15.836Z,20.88
2022-11-13T18:54:09.947Z,21.30
2022-11-13T18:56:57.038Z,21.73
2022-11-13T18:59:47.973Z,22.00
2022-11-13T19:02:34.825Z,24.70
2022-11-13T19:05:24.818Z,23.50
2022-11-13T19:08:14.334Z,23.98
2022-11-13T19:11:06.726Z,22.27
2022-11-13T19:13:53.951Z,22.45
2022-11-13T19:16:45.810Z,23.92
2022-11-13T19:19:32.734Z,21.85
2022-11-13T19:22:19.930Z,23.85
2022-11-13T19:25:08.349Z,25.35
2022-11-13T19:27:57.006Z,22.67
2022-11-13T19:30:47.475Z,26.05
2022-11-13T19:33:36.815Z,29.67
2022-11-13T19:36:25.806Z,23.25
2022-11-13T19:39:14.193Z,23.52
2022-11-13T19:42:01.453Z,27.20
2022-11-13T19:44:48.946Z,24.20
2022-11-13T19:47:36.044Z,21.95
2022-11-13T19:50:25.231Z,26.38
2022-11-13T19:53:13.420Z,24.90
2022-11-13T19:56:01.991Z,22.10
2022-11-13T19:58:57.228Z,26.38
2022-11-13T20:01:44.697Z,27.58
2022-11-13T20:04:36.145Z,25.23
2022-11-13T20:07:26.403Z,25.52
2022-11-13T20:10:26.534Z,24.60
2022-11-13T20:13:13.607Z,24.08
2022-11-13T20:16:00.333Z,27.20
2022-11-13T20:18:48.015Z,24.42
2022-11-13T20:21:34.978Z,24.52
2022-11-13T20:24:23.701Z,24.85
2022-11-13T20:27:10.643Z,27.88
2022-11-13T20:29:58.605Z,26.95
2022-11-13T20:32:52.051Z,26.80
2022-11-13T20:35:39.472Z,23.83
2022-11-13T20:38:26.781Z,33.90
2022-11-13T20:41:15.612Z,58.15
2022-11-13T20:44:03.530Z,107.13
2022-11-13T20:46:50.907Z,100.95
2022-11-13T20:49:38.191Z,38.78
2022-11-13T20:52:25.599Z,36.95
2022-11-13T20:55:12.831Z,37.85
2022-11-13T20:58:01.342Z,33.70
2022-11-13T21:00:51.652Z,32.47
2022-11-13T21:03:41.647Z,24.80
2022-11-13T21:06:29.249Z,26.35
2022-11-13T21:09:16.643Z,24.05
2022-11-13T21:12:03.895Z,23.45
2022-11-13T21:14:52.713Z,25.90
2022-11-13T21:17:39.801Z,24.65
2022-11-13T21:20:27.238Z,23.52
2022-11-13T21:23:14.401Z,24.13
2022-11-13T21:26:06.217Z,25.38
2022-11-13T21:28:56.779Z,25.40
2022-11-13T21:31:46.074Z,21.30
2022-11-13T21:34:33.229Z,21.98
2022-11-13T21:37:21.921Z,22.52
2022-11-13T21:40:18.565Z,21.48
2022-11-13T21:43:05.956Z,24.40
2022-11-13T21:45:55.197Z,25.13
2022-11-13T21:48:43.900Z,23.88
2022-11-13T21:51:31.359Z,19.42
2022-11-13T21:54:18.374Z,21.73
2022-11-13T21:57:05.732Z,19.33
2022-11-13T21:59:52.842Z,20.55
2022-11-13T22:02:40.135Z,20.35
2022-11-13T22:05:28.900Z,21.73
2022-11-13T22:08:16.185Z,23.48
2022-11-13T22:11:03.827Z,21.35
2022-11-13T22:13:51.446Z,21.58
2022-11-13T22:16:44.550Z,20.95
2022-11-13T22:19:35.964Z,23.10
2022-11-13T22:22:26.646Z,20.10
2022-11-13T22:25:18.959Z,21.80
2022-11-13T22:28:07.731Z,24.80
2022-11-13T22:30:55.237Z,22.08
2022-11-13T22:33:48.797Z,22.33
2022-11-13T22:36:39.781Z,20.42
2022-11-13T22:39:30.373Z,21.00
2022-11-13T22:42:17.357Z,22.42
2022-11-13T22:45:10.770Z,21.23
2022-11-13T22:48:07.044Z,21.52
2022-11-13T22:50:54.093Z,22.95
2022-11-13T22:53:43.030Z,29.52
2022-11-13T22:56:33.538Z,23.08
2022-11-13T22:59:22.036Z,21.08
2022-11-13T23:02:10.474Z,22.40
2022-11-13T23:04:57.757Z,23.70
2022-11-13T23:07:46.675Z,23.63
2022-11-13T23:10:33.663Z,25.40
2022-11-13T23:13:22.405Z,23.85
2022-11-13T23:16:11.470Z,22.00
2022-11-13T23:19:06.478Z,24.02
2022-11-13T23:21:55.538Z,22.52
2022-11-13T23:24:42.658Z,24.33
2022-11-13T23:27:30.701Z,24.90
2022-11-13T23:30:19.753Z,28.55
2022-11-13T23:33:10.214Z,22.88
2022-11-13T23:38:47.735Z,21.90
2022-11-13T23:41:38.907Z,22.97
2022-11-13T23:44:28.236Z,24.20
2022-11-13T23:47:16.988Z,24.45
2022-11-13T23:50:05.550Z,24.10
2022-11-13T23:52:52.834Z,22.92
2022-11-13T23:55:41.310Z,23.77
2022-11-13T23:58:28.804Z,24.50
